Port Chester, New York
Current Conditions -  °F | °C
As of 4:56 PM on Friday 28 Nov 2014 (Local Time) from KHPN Reporting Station
Few Clouds Few Clouds  
Wind Chill: -8°   Ceiling: Unl
Heat Index: -2°   Visibility: 10mi
Dew Point: -11°   Wind: 16mph
Humidity: 51%   Direction: 310°NW
Pressure: 30.18"   Gusts: 23mph
Location:  41°N, 73.67°W
Report Text: KHPN 282156Z 31014G20KT 10SM FEW041 M02/M11 A3018 RMK AO2 SLP230 T10171106
Loading
Personal Weather Stations






























Interactive Weather Map New forecast layout! Learn more

10-Day Weather Forecast

Advertisements
Track Severe Weather on mobile